Terminal Aerodrome Forecast
Issued by NWS

Home | Current Version | Previous Version | Text Only | Print | Product List | Glossary On
Versions: 1 2 3 4 5 6 7 8 9 10 11 12 13 14 15 16 17 18 19 20 21
086
FTUS46 KMFR 271141
TAFLMT
TAF
KLMT 271141Z 2712/2812 00000KT P6SM FEW018 SCT045
     FM271500 26006KT P6SM -RASN SCT015 BKN030
     FM271900 29012G18KT P6SM SCT040
     FM280300 30005KT P6SM FEW040 SCT100=

USA.gov is the U.S. government's official web portal to all federal, state and local government web resources and services.